createdAt,value
2019-03-29T06:14:41.814Z,1026.13
2019-03-29T06:15:41.769Z,1026.19
2019-03-29T06:16:41.766Z,1026.19
2019-03-29T06:17:48.370Z,1026.12
2019-03-29T06:18:42.811Z,1026.13
2019-03-29T06:19:41.725Z,1026.03
2019-03-29T06:20:41.803Z,1026.12
2019-03-29T06:21:41.708Z,1026.07
2019-03-29T06:22:41.853Z,1026.12
2019-03-29T06:23:41.686Z,1026.13
2019-03-29T06:24:41.729Z,1026.17
2019-03-29T06:25:41.668Z,1026.22
2019-03-29T06:26:41.753Z,1026.17
2019-03-29T06:27:41.677Z,1026.15
2019-03-29T06:28:41.660Z,1026.11
2019-03-29T06:29:41.630Z,1026.06
2019-03-29T06:30:41.681Z,1026.13
2019-03-29T06:31:41.607Z,1026.02
2019-03-29T06:32:41.683Z,1026.06
2019-03-29T06:33:44.380Z,1026.09
2019-03-29T06:34:41.599Z,1026.06
2019-03-29T06:35:41.555Z,1026.07
2019-03-29T06:36:41.615Z,1026.10
2019-03-29T06:37:41.539Z,1026.09
2019-03-29T06:38:41.651Z,1026.11
2019-03-29T06:39:41.504Z,1026.10
2019-03-29T06:40:41.530Z,1026.07
2019-03-29T06:41:41.485Z,1026.10
2019-03-29T06:42:41.505Z,1026.08
2019-03-29T06:43:41.494Z,1026.07
2019-03-29T06:44:44.205Z,1026.00
2019-03-29T06:45:47.977Z,1025.96
2019-03-29T06:46:42.501Z,1025.96
2019-03-29T06:47:41.432Z,1026.04
2019-03-29T06:48:41.521Z,1025.93
2019-03-29T06:49:41.427Z,1025.99
2019-03-29T06:50:41.528Z,1026.00
2019-03-29T06:51:41.379Z,1026.05
2019-03-29T06:52:41.426Z,1026.06
2019-03-29T06:53:41.445Z,1026.03
2019-03-29T06:54:41.425Z,1026.01
2019-03-29T06:55:41.348Z,1026.08
2019-03-29T06:56:41.449Z,1026.05
2019-03-29T06:57:41.320Z,1026.11
2019-03-29T06:58:41.390Z,1026.09
2019-03-29T06:59:41.306Z,1026.18
2019-03-29T07:00:41.364Z,1026.12
2019-03-29T07:01:41.279Z,1026.07
2019-03-29T07:02:41.384Z,1026.13
2019-03-29T07:03:41.289Z,1026.15
2019-03-29T07:04:41.289Z,1026.04
2019-03-29T07:05:41.215Z,1026.12
2019-03-29T07:06:41.323Z,1026.11
2019-03-29T07:07:44.427Z,1026.12
2019-03-29T07:08:41.251Z,1026.15
2019-03-29T07:09:41.278Z,1026.12
2019-03-29T07:10:41.233Z,1026.13
2019-03-29T07:11:41.155Z,1026.09
2019-03-29T07:12:41.273Z,1026.06
2019-03-29T07:13:41.203Z,1026.06
2019-03-29T07:14:41.192Z,1026.05
2019-03-29T07:15:41.111Z,1026.06
2019-03-29T07:16:41.167Z,1026.08
2019-03-29T07:17:41.084Z,1026.12
2019-03-29T07:18:41.190Z,1026.13
2019-03-29T07:19:41.105Z,1026.10
2019-03-29T07:20:41.107Z,1026.14
2019-03-29T07:21:41.073Z,1026.10
2019-03-29T07:22:41.111Z,1026.07
2019-03-29T07:23:41.022Z,1026.09
2019-03-29T07:24:41.154Z,1026.09
2019-03-29T07:25:41.017Z,1026.14
2019-03-29T07:26:41.001Z,1026.11
2019-03-29T07:27:45.853Z,1026.09
2019-03-29T07:28:41.967Z,1026.13
2019-03-29T07:29:41.019Z,1026.15
2019-03-29T07:30:40.963Z,1026.16
2019-03-29T07:31:40.960Z,1026.21
2019-03-29T07:32:40.938Z,1026.17
2019-03-29T07:33:40.927Z,1026.17
2019-03-29T07:34:40.901Z,1026.12
2019-03-29T07:35:40.955Z,1026.14
2019-03-29T07:36:40.881Z,1026.09
2019-03-29T07:37:40.876Z,1026.08
2019-03-29T07:38:40.854Z,1026.16
2019-03-29T07:39:40.883Z,1026.12
2019-03-29T07:40:40.889Z,1026.11
2019-03-29T07:41:40.855Z,1026.15
2019-03-29T07:42:40.811Z,1026.06
2019-03-29T07:43:40.823Z,1026.10
2019-03-29T07:44:40.792Z,1026.12
2019-03-29T07:45:40.816Z,1026.15
2019-03-29T07:46:40.776Z,1026.10
2019-03-29T07:47:40.761Z,1026.12
2019-03-29T07:48:40.745Z,1026.06
2019-03-29T07:49:40.747Z,1026.11
2019-03-29T07:50:40.758Z,1026.09
2019-03-29T07:51:40.726Z,1026.06
2019-03-29T07:52:40.711Z,1026.08
2019-03-29T07:53:40.708Z,1026.13
2019-03-29T07:54:40.683Z,1026.20
2019-03-29T07:55:40.693Z,1026.19
2019-03-29T07:56:40.667Z,1026.13
2019-03-29T07:57:40.656Z,1026.17
2019-03-29T07:58:40.632Z,1026.17
2019-03-29T07:59:40.643Z,1026.12
2019-03-29T08:00:40.664Z,1026.13
2019-03-29T08:01:40.633Z,1026.11
2019-03-29T08:02:40.593Z,1026.17
2019-03-29T08:03:40.577Z,1026.19
2019-03-29T08:04:40.571Z,1026.20
2019-03-29T08:05:40.589Z,1026.20
2019-03-29T08:06:40.585Z,1026.21
2019-03-29T08:07:40.535Z,1026.15
2019-03-29T08:08:40.551Z,1026.14
2019-03-29T08:09:40.519Z,1026.20
2019-03-29T08:10:40.501Z,1026.24
2019-03-29T08:11:46.548Z,1026.22
2019-03-29T08:12:41.473Z,1026.14
2019-03-29T08:13:40.492Z,1026.19
2019-03-29T08:14:40.469Z,1026.20
2019-03-29T08:15:40.453Z,1026.20
2019-03-29T08:16:40.455Z,1026.17
2019-03-29T08:17:40.436Z,1026.23
2019-03-29T08:18:40.411Z,1026.21
2019-03-29T08:19:40.408Z,1026.20
2019-03-29T08:20:43.958Z,1026.21
2019-03-29T08:21:40.415Z,1026.21
2019-03-29T08:22:40.367Z,1026.17
2019-03-29T08:23:40.362Z,1026.18
2019-03-29T08:24:40.346Z,1026.17
2019-03-29T08:25:40.363Z,1026.09
2019-03-29T08:26:40.356Z,1026.16
2019-03-29T08:28:41.349Z,1026.13
2019-03-29T08:29:40.293Z,1026.15
2019-03-29T08:30:40.281Z,1026.18
2019-03-29T08:31:40.332Z,1026.20
2019-03-29T08:32:40.254Z,1026.18
2019-03-29T08:33:40.253Z,1026.25
2019-03-29T08:34:40.244Z,1026.18
2019-03-29T08:35:40.226Z,1026.20
2019-03-29T08:36:40.210Z,1026.18
2019-03-29T08:37:40.230Z,1026.15
2019-03-29T08:38:40.191Z,1026.15
2019-03-29T08:40:41.219Z,1026.13
2019-03-29T08:41:40.158Z,1026.16
2019-03-29T08:42:40.174Z,1026.21
2019-03-29T08:43:40.137Z,1026.21
2019-03-29T08:44:40.150Z,1026.20
2019-03-29T08:45:40.166Z,1026.27
2019-03-29T08:46:40.127Z,1026.22
2019-03-29T08:47:40.122Z,1026.23
2019-03-29T08:48:40.085Z,1026.23
2019-03-29T08:49:40.102Z,1026.19
2019-03-29T08:50:40.062Z,1026.19
2019-03-29T08:51:41.575Z,1026.15
2019-03-29T08:52:40.063Z,1026.18
2019-03-29T08:54:41.063Z,1026.14
2019-03-29T08:55:46.100Z,1026.13
2019-03-29T08:56:40.984Z,1026.24
2019-03-29T08:57:40.063Z,1026.16
2019-03-29T08:58:39.965Z,1026.22
2019-03-29T08:59:40.067Z,1026.16
2019-03-29T09:00:39.985Z,1026.15
2019-03-29T09:01:40.092Z,1026.10
2019-03-29T09:02:39.927Z,1026.10
2019-03-29T09:03:40.005Z,1026.11
2019-03-29T09:04:39.913Z,1026.07
2019-03-29T09:05:39.983Z,1026.09
2019-03-29T09:06:52.419Z,1026.10
2019-03-29T09:07:44.866Z,1026.10
2019-03-29T09:08:39.938Z,1026.10
2019-03-29T09:09:39.854Z,1026.10
2019-03-29T09:11:40.882Z,1026.09
2019-03-29T09:12:39.981Z,1026.09
2019-03-29T09:13:39.855Z,1026.09
2019-03-29T09:14:39.842Z,1026.03
2019-03-29T09:15:39.780Z,1026.02
2019-03-29T09:16:39.869Z,1025.97
2019-03-29T09:17:39.755Z,1025.96
2019-03-29T09:18:39.903Z,1025.98
2019-03-29T09:19:39.769Z,1025.94
2019-03-29T09:20:39.781Z,1025.96
2019-03-29T09:21:39.715Z,1025.96
2019-03-29T09:22:39.791Z,1025.92
2019-03-29T09:23:39.726Z,1025.97
2019-03-29T09:24:39.734Z,1025.91
2019-03-29T09:25:40.599Z,1025.92
2019-03-29T09:26:39.764Z,1025.90
2019-03-29T09:27:39.650Z,1025.85
2019-03-29T09:28:39.789Z,1025.86
2019-03-29T09:29:39.638Z,1025.88
2019-03-29T09:30:39.644Z,1025.87
2019-03-29T09:31:39.616Z,1025.85
2019-03-29T09:32:39.664Z,1025.90
2019-03-29T09:33:39.616Z,1025.84
2019-03-29T09:34:39.707Z,1025.86
2019-03-29T09:35:42.584Z,1025.82
2019-03-29T09:36:39.599Z,1025.82
2019-03-29T09:37:39.553Z,1025.81
2019-03-29T09:38:39.630Z,1025.80
2019-03-29T09:39:39.528Z,1025.83
2019-03-29T09:40:39.671Z,1025.73
2019-03-29T09:41:39.496Z,1025.75
2019-03-29T09:42:39.627Z,1025.76
2019-03-29T09:43:39.509Z,1025.74
2019-03-29T09:44:39.574Z,1025.74
2019-03-29T09:45:41.127Z,1025.73
2019-03-29T09:46:39.469Z,1025.74
2019-03-29T09:47:40.677Z,1025.71
2019-03-29T09:48:39.431Z,1025.76
2019-03-29T09:49:39.456Z,1025.71
2019-03-29T09:50:39.413Z,1025.72
2019-03-29T09:51:39.431Z,1025.69
2019-03-29T09:52:39.386Z,1025.72
2019-03-29T09:53:41.179Z,1025.62
2019-03-29T09:54:39.396Z,1025.62
2019-03-29T09:55:39.334Z,1025.65
2019-03-29T09:56:39.665Z,1025.61
2019-03-29T09:57:39.329Z,1025.65
2019-03-29T09:58:39.318Z,1025.58
2019-03-29T09:59:39.294Z,1025.63
2019-03-29T10:00:39.313Z,1025.59
2019-03-29T10:01:39.273Z,1025.58
2019-03-29T10:02:39.261Z,1025.55
2019-03-29T10:03:39.257Z,1025.60
2019-03-29T10:05:40.303Z,1025.55
2019-03-29T10:07:40.260Z,1025.53
2019-03-29T10:08:39.203Z,1025.53
2019-03-29T10:09:39.220Z,1025.49
2019-03-29T10:10:39.204Z,1025.55
2019-03-29T10:11:39.168Z,1025.52
2019-03-29T10:12:43.733Z,1025.51
2019-03-29T10:13:39.148Z,1025.50
2019-03-29T10:14:39.150Z,1025.50
2019-03-29T10:15:39.155Z,1025.49
2019-03-29T10:16:39.122Z,1025.44
2019-03-29T10:17:39.098Z,1025.49
2019-03-29T10:18:39.102Z,1025.47
2019-03-29T10:19:39.087Z,1025.43
2019-03-29T10:20:39.114Z,1025.41
2019-03-29T10:21:39.080Z,1025.38
2019-03-29T10:22:39.070Z,1025.38
2019-03-29T10:23:39.049Z,1025.31
2019-03-29T10:24:39.137Z,1025.30
2019-03-29T10:25:39.033Z,1025.30
2019-03-29T10:26:39.007Z,1025.31
2019-03-29T10:27:38.999Z,1025.26
2019-03-29T10:28:38.990Z,1025.27
2019-03-29T10:29:38.967Z,1025.25
2019-03-29T10:30:39.041Z,1025.28
2019-03-29T10:31:38.942Z,1025.13
2019-03-29T10:32:38.934Z,1025.16
2019-03-29T10:33:38.914Z,1025.14
2019-03-29T10:34:38.919Z,1025.14
2019-03-29T10:35:50.659Z,1025.12
2019-03-29T10:36:39.912Z,1025.09
2019-03-29T10:37:38.880Z,1025.12
2019-03-29T10:38:38.860Z,1025.11
2019-03-29T10:39:38.891Z,1025.04
2019-03-29T10:40:38.910Z,1025.03
2019-03-29T10:41:38.869Z,1025.11
2019-03-29T10:42:40.343Z,1025.04
2019-03-29T10:43:38.810Z,1024.98
2019-03-29T10:44:38.791Z,1025.03
2019-03-29T10:45:40.672Z,1024.95
2019-03-29T10:46:38.803Z,1024.94
2019-03-29T10:47:43.751Z,1024.92
2019-03-29T10:48:39.760Z,1024.90
2019-03-29T10:49:38.769Z,1024.90
2019-03-29T10:50:38.727Z,1024.80
2019-03-29T10:51:38.759Z,1024.81
2019-03-29T10:52:38.732Z,1024.75
2019-03-29T10:53:38.703Z,1024.83
2019-03-29T10:54:38.684Z,1024.81
2019-03-29T10:55:38.697Z,1024.85
2019-03-29T10:56:38.694Z,1024.85
2019-03-29T10:57:38.657Z,1024.76
2019-03-29T10:58:38.638Z,1024.81
2019-03-29T10:59:38.634Z,1024.74
2019-03-29T11:00:38.645Z,1024.66
2019-03-29T11:01:38.637Z,1024.73
2019-03-29T11:02:38.594Z,1024.64
2019-03-29T11:03:38.583Z,1024.73
2019-03-29T11:04:38.601Z,1024.64
2019-03-29T11:05:38.562Z,1024.70
2019-03-29T11:06:38.569Z,1024.69
2019-03-29T11:07:38.543Z,1024.67
2019-03-29T11:08:38.523Z,1024.70
2019-03-29T11:09:38.541Z,1024.68
2019-03-29T11:10:38.528Z,1024.67
2019-03-29T11:11:38.584Z,1024.61
2019-03-29T11:12:38.482Z,1024.56
2019-03-29T11:13:40.931Z,1024.57
2019-03-29T11:14:38.463Z,1024.51
2019-03-29T11:15:38.464Z,1024.52
2019-03-29T11:16:38.475Z,1024.48
2019-03-29T11:17:38.476Z,1024.50
2019-03-29T11:18:38.416Z,1024.50
2019-03-29T11:19:38.423Z,1024.51
2019-03-29T11:20:38.394Z,1024.59
2019-03-29T11:21:38.388Z,1024.44
2019-03-29T11:22:38.403Z,1024.50
2019-03-29T11:23:38.371Z,1024.45
2019-03-29T11:24:38.355Z,1024.44
2019-03-29T11:25:38.343Z,1024.41
2019-03-29T11:26:38.350Z,1024.36
2019-03-29T11:27:38.349Z,1024.40
2019-03-29T11:28:38.309Z,1024.39
2019-03-29T11:29:38.320Z,1024.37
2019-03-29T11:30:42.650Z,1024.32
2019-03-29T11:31:38.277Z,1024.42
2019-03-29T11:32:38.294Z,1024.42
2019-03-29T11:33:38.274Z,1024.44
2019-03-29T11:34:38.252Z,1024.36
2019-03-29T11:35:38.249Z,1024.36
2019-03-29T11:36:38.220Z,1024.34
2019-03-29T11:37:40.357Z,1024.34
2019-03-29T11:38:38.219Z,1024.33
2019-03-29T11:39:40.350Z,1024.31
2019-03-29T11:40:38.193Z,1024.27
2019-03-29T11:41:40.354Z,1024.30
2019-03-29T11:42:38.151Z,1024.26
2019-03-29T11:43:40.506Z,1024.28
2019-03-29T11:44:38.129Z,1024.21
2019-03-29T11:45:40.489Z,1024.23
2019-03-29T11:46:38.103Z,1024.21
2019-03-29T11:48:39.179Z,1024.22
2019-03-29T11:50:39.119Z,1024.12
2019-03-29T11:52:39.103Z,1024.16
2019-03-29T11:53:40.783Z,1024.16
2019-03-29T11:54:38.029Z,1024.17
2019-03-29T11:56:39.052Z,1024.07
2019-03-29T11:58:39.048Z,1024.08
2019-03-29T12:00:39.009Z,1024.07
2019-03-29T12:02:39.005Z,1024.04
2019-03-29T12:03:41.257Z,1024.07
2019-03-29T12:04:37.912Z,1024.02
2019-03-29T12:06:38.962Z,1024.05
2019-03-29T12:09:41.564Z,1023.94
2019-03-29T12:13:45.949Z,1023.80
2019-03-29T12:14:44.907Z,1023.80
2019-03-29T12:15:44.979Z,1023.80
2019-03-29T12:16:44.918Z,1023.77
2019-03-29T12:19:25.957Z,1023.82
2019-03-29T12:20:25.986Z,1023.75
2019-03-29T12:21:25.957Z,1023.80
2019-03-29T12:22:25.845Z,1023.82
2019-03-29T12:23:25.945Z,1023.71
2019-03-29T12:24:25.870Z,1023.74
2019-03-29T12:25:25.924Z,1023.73
2019-03-29T12:26:25.813Z,1023.73
2019-03-29T12:27:25.828Z,1023.70
2019-03-29T12:28:25.784Z,1023.68
2019-03-29T12:29:25.887Z,1023.70
2019-03-29T12:30:31.841Z,1023.72
2019-03-29T12:31:26.779Z,1023.68
2019-03-29T12:32:25.728Z,1023.66
2019-03-29T12:33:25.770Z,1023.63
2019-03-29T12:34:25.740Z,1023.62
2019-03-29T12:35:25.829Z,1023.64
2019-03-29T12:36:25.685Z,1023.61
2019-03-29T12:37:25.821Z,1023.57
2019-03-29T12:38:25.661Z,1023.53
2019-03-29T12:39:25.742Z,1023.53
2019-03-29T12:40:25.641Z,1023.50
2019-03-29T12:41:25.719Z,1023.49
2019-03-29T12:42:25.617Z,1023.49
2019-03-29T12:43:25.741Z,1023.51
2019-03-29T12:44:25.632Z,1023.49
2019-03-29T12:45:25.649Z,1023.49
2019-03-29T12:46:25.566Z,1023.45
2019-03-29T12:47:25.670Z,1023.40
2019-03-29T12:48:25.564Z,1023.39
2019-03-29T12:49:25.569Z,1023.43
2019-03-29T12:50:25.558Z,1023.32
2019-03-29T12:51:25.585Z,1023.33
2019-03-29T12:52:25.506Z,1023.33
2019-03-29T12:53:25.601Z,1023.31
2019-03-29T12:54:25.507Z,1023.29
2019-03-29T12:55:25.551Z,1023.30
2019-03-29T12:56:25.460Z,1023.30
2019-03-29T12:57:25.519Z,1023.28
2019-03-29T12:58:25.445Z,1023.24
2019-03-29T12:59:25.540Z,1023.23
2019-03-29T13:00:25.442Z,1023.21
2019-03-29T13:01:38.541Z,1023.24
2019-03-29T13:02:26.387Z,1023.17
2019-03-29T13:03:25.467Z,1023.22
2019-03-29T13:04:25.366Z,1023.20
2019-03-29T13:05:25.406Z,1023.16
2019-03-29T13:06:25.353Z,1023.20
2019-03-29T13:07:25.511Z,1023.18
2019-03-29T13:08:25.325Z,1023.18
2019-03-29T13:09:25.587Z,1023.17
2019-03-29T13:10:25.320Z,1023.08
2019-03-29T13:11:25.349Z,1023.10
2019-03-29T13:12:25.276Z,1023.10
2019-03-29T13:13:25.331Z,1023.12
2019-03-29T13:14:25.272Z,1023.09
2019-03-29T13:15:25.373Z,1022.95
2019-03-29T13:16:27.544Z,1023.00
2019-03-29T13:17:28.311Z,1023.00
2019-03-29T13:18:25.217Z,1022.96
2019-03-29T13:19:25.264Z,1023.01
2019-03-29T13:20:25.215Z,1023.00
2019-03-29T13:21:25.286Z,1022.91
2019-03-29T13:22:25.173Z,1022.95
2019-03-29T13:23:25.192Z,1022.93
2019-03-29T13:24:25.327Z,1022.96
2019-03-29T13:25:25.253Z,1022.94
2019-03-29T13:26:25.124Z,1022.91
2019-03-29T13:27:25.220Z,1022.88
2019-03-29T13:28:25.115Z,1022.77
2019-03-29T13:29:25.466Z,1022.80
2019-03-29T13:30:25.072Z,1022.79
2019-03-29T13:31:25.180Z,1022.77
2019-03-29T13:32:25.166Z,1022.81
2019-03-29T13:33:25.160Z,1022.84
2019-03-29T13:34:25.053Z,1022.83
2019-03-29T13:35:25.069Z,1022.79
2019-03-29T13:36:25.038Z,1022.77
2019-03-29T13:37:25.082Z,1022.69
2019-03-29T13:38:25.019Z,1022.72
2019-03-29T13:39:25.102Z,1022.70
2019-03-29T13:40:25.008Z,1022.72
2019-03-29T13:41:25.109Z,1022.72
2019-03-29T13:42:24.962Z,1022.72
2019-03-29T13:43:25.025Z,1022.74
2019-03-29T13:44:28.182Z,1022.71
2019-03-29T13:45:27.703Z,1022.64
2019-03-29T13:46:24.932Z,1022.68
2019-03-29T13:47:24.975Z,1022.62
2019-03-29T13:48:24.919Z,1022.55
2019-03-29T13:49:25.523Z,1022.55
2019-03-29T13:50:24.854Z,1022.58
2019-03-29T13:51:25.008Z,1022.53
2019-03-29T13:52:24.835Z,1022.49
2019-03-29T13:53:24.904Z,1022.50
2019-03-29T13:54:24.824Z,1022.50
2019-03-29T13:55:24.907Z,1022.46
2019-03-29T13:56:24.806Z,1022.41
2019-03-29T13:57:24.845Z,1022.45
2019-03-29T13:58:24.765Z,1022.42
2019-03-29T13:59:24.836Z,1022.44
2019-03-29T14:00:24.760Z,1022.48
2019-03-29T14:01:24.912Z,1022.33
2019-03-29T14:02:24.735Z,1022.43
2019-03-29T14:03:24.762Z,1022.38
2019-03-29T14:04:24.710Z,1022.32
2019-03-29T14:05:24.786Z,1022.33
2019-03-29T14:06:24.711Z,1022.23
2019-03-29T14:07:24.817Z,1022.27
2019-03-29T14:08:24.704Z,1022.28
2019-03-29T14:09:24.699Z,1022.28
2019-03-29T14:10:24.655Z,1022.20
2019-03-29T14:11:24.704Z,1022.22
2019-03-29T14:12:24.653Z,1022.18
2019-03-29T14:13:24.726Z,1022.15
2019-03-29T14:14:37.394Z,1022.17
2019-03-29T14:15:25.588Z,1022.17
2019-03-29T14:16:24.642Z,1022.20
2019-03-29T14:17:24.612Z,1022.16
2019-03-29T14:18:24.657Z,1022.15
2019-03-29T14:19:25.945Z,1022.19
2019-03-29T14:20:24.642Z,1022.15
2019-03-29T14:21:24.522Z,1022.16
2019-03-29T14:22:24.612Z,1022.02
2019-03-29T14:23:24.500Z,1022.06
2019-03-29T14:24:24.603Z,1022.05
2019-03-29T14:25:24.507Z,1022.05
2019-03-29T14:26:24.936Z,1022.04
2019-03-29T14:27:24.766Z,1022.02
2019-03-29T14:28:24.530Z,1022.04
2019-03-29T14:29:24.428Z,1022.02
2019-03-29T14:30:24.552Z,1021.97
2019-03-29T14:31:24.420Z,1021.95
2019-03-29T14:32:24.448Z,1021.91
2019-03-29T14:33:24.417Z,1021.85
2019-03-29T14:34:24.463Z,1021.85
2019-03-29T14:35:24.384Z,1021.84
2019-03-29T14:36:24.908Z,1021.87
2019-03-29T14:37:24.406Z,1021.81
2019-03-29T14:38:24.425Z,1021.76
2019-03-29T14:39:24.327Z,1021.76
2019-03-29T14:40:24.400Z,1021.74
2019-03-29T14:41:24.352Z,1021.76
2019-03-29T14:42:24.544Z,1021.78
2019-03-29T14:43:24.315Z,1021.80
2019-03-29T14:44:24.328Z,1021.73
2019-03-29T14:45:24.265Z,1021.75
2019-03-29T14:46:24.348Z,1021.71
2019-03-29T14:47:38.142Z,1021.70
2019-03-29T14:48:24.298Z,1021.70
2019-03-29T14:49:24.261Z,1021.70
2019-03-29T14:50:24.258Z,1021.68
2019-03-29T14:51:24.272Z,1021.70
2019-03-29T14:52:24.184Z,1021.59
2019-03-29T14:53:24.353Z,1021.62
2019-03-29T14:54:24.160Z,1021.59
2019-03-29T14:55:24.201Z,1021.59
2019-03-29T14:56:24.140Z,1021.59
2019-03-29T14:57:24.252Z,1021.52
2019-03-29T14:58:24.247Z,1021.62
2019-03-29T15:00:26.207Z,1021.54
2019-03-29T15:01:26.183Z,1021.50
2019-03-29T15:02:24.073Z,1021.57
2019-03-29T15:03:24.611Z,1021.55
2019-03-29T15:04:25.181Z,1021.49
2019-03-29T15:07:48.358Z,1021.40
2019-03-29T15:08:24.435Z,1021.43
2019-03-29T15:09:25.058Z,1021.48
2019-03-29T15:10:24.377Z,1021.42
2019-03-29T15:11:45.713Z,1021.40
2019-03-29T15:12:24.339Z,1021.37
2019-03-29T15:13:24.047Z,1021.33
2019-03-29T15:14:25.090Z,1021.39
2019-03-29T15:16:02.368Z,1021.32
2019-03-29T15:16:25.288Z,1021.33
2019-03-29T15:17:25.156Z,1021.30
2019-03-29T15:18:24.643Z,1021.29
2019-03-29T15:19:26.660Z,1021.27
2019-03-29T15:20:24.595Z,1021.23
2019-03-29T15:21:45.667Z,1021.27
2019-03-29T15:22:33.073Z,1021.28
2019-03-29T15:23:25.441Z,1021.22
2019-03-29T15:24:35.717Z,1021.23
2019-03-29T15:25:23.832Z,1021.18
2019-03-29T15:26:23.837Z,1021.18
2019-03-29T15:27:23.806Z,1021.15
2019-03-29T15:28:23.913Z,1021.22
2019-03-29T15:29:23.773Z,1021.17
2019-03-29T15:30:23.854Z,1021.16
2019-03-29T15:31:23.760Z,1021.20
2019-03-29T15:32:23.840Z,1021.17
2019-03-29T15:33:23.735Z,1021.13
2019-03-29T15:34:23.780Z,1021.13
2019-03-29T15:35:23.710Z,1021.12
2019-03-29T15:36:23.760Z,1021.03
2019-03-29T15:37:23.684Z,1021.06
2019-03-29T15:38:23.775Z,1021.01
2019-03-29T15:39:23.715Z,1020.99
2019-03-29T15:40:23.726Z,1020.97
2019-03-29T15:41:23.643Z,1021.03
2019-03-29T15:42:23.702Z,1020.95
2019-03-29T15:43:23.627Z,1021.03
2019-03-29T15:44:23.752Z,1020.95
2019-03-29T15:45:23.614Z,1020.95
2019-03-29T15:46:23.734Z,1020.93
2019-03-29T15:47:23.598Z,1020.95
2019-03-29T15:48:23.661Z,1020.92
2019-03-29T15:49:23.586Z,1020.90
2019-03-29T15:50:23.698Z,1020.89
2019-03-29T15:51:23.535Z,1020.86
2019-03-29T15:52:23.572Z,1020.89
2019-03-29T15:53:23.512Z,1020.79
2019-03-29T15:54:23.596Z,1020.79
2019-03-29T15:55:23.530Z,1020.83
2019-03-29T15:56:23.610Z,1020.79
2019-03-29T15:57:23.461Z,1020.83
2019-03-29T15:58:23.512Z,1020.79
2019-03-29T15:59:23.450Z,1020.74
2019-03-29T16:00:23.557Z,1020.76
2019-03-29T16:01:23.429Z,1020.69
2019-03-29T16:02:23.471Z,1020.68
2019-03-29T16:03:23.405Z,1020.68
2019-03-29T16:04:23.467Z,1020.72
2019-03-29T16:05:23.410Z,1020.70
2019-03-29T16:06:23.547Z,1020.69
2019-03-29T16:07:23.372Z,1020.67
2019-03-29T16:08:23.380Z,1020.62
2019-03-29T16:09:23.330Z,1020.58
2019-03-29T16:10:23.418Z,1020.62
2019-03-29T16:11:23.339Z,1020.61
2019-03-29T16:12:23.423Z,1020.55
2019-03-29T16:13:23.287Z,1020.58
2019-03-29T16:14:23.315Z,1020.58
2019-03-29T16:15:33.864Z,1020.57
2019-03-29T16:16:24.289Z,1020.61
2019-03-29T16:17:23.374Z,1020.55
2019-03-29T16:18:23.236Z,1020.58
2019-03-29T16:19:23.260Z,1020.53
2019-03-29T16:20:23.208Z,1020.52
2019-03-29T16:21:23.294Z,1020.46
2019-03-29T16:22:23.206Z,1020.49
2019-03-29T16:23:23.296Z,1020.50
2019-03-29T16:24:23.196Z,1020.51
2019-03-29T16:25:23.183Z,1020.46
2019-03-29T16:26:23.165Z,1020.42
2019-03-29T16:27:25.163Z,1020.38
2019-03-29T16:28:23.133Z,1020.44
2019-03-29T16:29:23.212Z,1020.37
2019-03-29T16:30:23.114Z,1020.44
2019-03-29T16:31:23.160Z,1020.43
2019-03-29T16:32:23.072Z,1020.30
2019-03-29T16:33:23.140Z,1020.35
2019-03-29T16:34:23.060Z,1020.31
2019-03-29T16:35:23.202Z,1020.34
2019-03-29T16:36:23.061Z,1020.33
2019-03-29T16:37:23.067Z,1020.33
2019-03-29T16:38:22.995Z,1020.34
2019-03-29T16:39:23.084Z,1020.35
2019-03-29T16:40:22.998Z,1020.31
2019-03-29T16:41:23.024Z,1020.30
2019-03-29T16:42:22.962Z,1020.32
2019-03-29T16:43:24.068Z,1020.25
2019-03-29T16:44:23.378Z,1020.31
2019-03-29T16:45:23.196Z,1020.27
2019-03-29T16:46:22.925Z,1020.29
2019-03-29T16:47:23.031Z,1020.23
2019-03-29T16:48:22.919Z,1020.32
2019-03-29T16:49:22.945Z,1020.25
2019-03-29T16:50:22.888Z,1020.21
2019-03-29T16:51:22.957Z,1020.31
2019-03-29T16:52:22.922Z,1020.26
2019-03-29T16:53:22.864Z,1020.24
2019-03-29T16:54:22.834Z,1020.22
2019-03-29T16:55:22.932Z,1020.30
2019-03-29T16:56:22.835Z,1020.25
2019-03-29T16:57:22.926Z,1020.26
2019-03-29T16:58:22.792Z,1020.24
2019-03-29T16:59:22.810Z,1020.26
2019-03-29T17:00:22.761Z,1020.25
2019-03-29T17:01:22.819Z,1020.19
2019-03-29T17:02:22.736Z,1020.23
2019-03-29T17:03:22.990Z,1020.15
2019-03-29T17:04:22.953Z,1020.20
2019-03-29T17:05:22.751Z,1020.21
2019-03-29T17:06:22.704Z,1020.24
2019-03-29T17:07:22.761Z,1020.20
2019-03-29T17:08:22.724Z,1020.15
2019-03-29T17:09:22.781Z,1020.20
2019-03-29T17:10:22.657Z,1020.17
2019-03-29T17:11:22.722Z,1020.11
2019-03-29T17:12:22.635Z,1020.18
2019-03-29T17:13:22.752Z,1020.05
2019-03-29T17:14:22.606Z,1020.10
2019-03-29T17:15:22.716Z,1020.05
2019-03-29T17:16:30.327Z,1020.10
2019-03-29T17:17:23.582Z,1020.02
2019-03-29T17:18:29.219Z,1020.05
2019-03-29T17:19:23.565Z,1020.03
2019-03-29T17:20:22.656Z,1020.02
2019-03-29T17:21:22.537Z,1020.03
2019-03-29T17:22:22.553Z,1020.06
2019-03-29T17:23:22.533Z,1020.05
2019-03-29T17:24:22.577Z,1020.00
2019-03-29T17:25:22.499Z,1020.02
2019-03-29T17:26:22.587Z,1020.05
2019-03-29T17:27:22.487Z,1020.05
2019-03-29T17:28:22.700Z,1020.08
2019-03-29T17:29:22.469Z,1020.04
2019-03-29T17:30:22.513Z,1020.03
2019-03-29T17:31:22.426Z,1020.10
2019-03-29T17:32:22.537Z,1020.06
2019-03-29T17:33:22.647Z,1020.07
2019-03-29T17:34:22.595Z,1020.11
2019-03-29T17:35:22.384Z,1020.04
2019-03-29T17:36:22.453Z,1020.05
2019-03-29T17:37:22.357Z,1020.04
2019-03-29T17:38:22.473Z,1020.02
2019-03-29T17:39:22.422Z,1020.03
2019-03-29T17:40:22.380Z,1020.04
2019-03-29T17:41:22.334Z,1020.06
2019-03-29T17:42:22.395Z,1020.04
2019-03-29T17:43:22.290Z,1020.03
2019-03-29T17:44:22.353Z,1020.07
2019-03-29T17:45:22.270Z,1020.02
2019-03-29T17:46:22.319Z,1019.95
2019-03-29T17:47:22.255Z,1020.01
2019-03-29T17:48:22.332Z,1019.94
2019-03-29T17:49:22.267Z,1019.99
2019-03-29T17:50:25.225Z,1019.98
2019-03-29T17:51:22.233Z,1020.00
2019-03-29T17:52:22.264Z,1019.98
2019-03-29T17:53:22.178Z,1020.08
2019-03-29T17:54:22.271Z,1019.96
2019-03-29T17:55:22.179Z,1019.97
2019-03-29T17:56:22.180Z,1019.96
2019-03-29T17:57:22.136Z,1019.99
2019-03-29T17:58:22.205Z,1019.99
2019-03-29T17:59:22.136Z,1019.99
2019-03-29T18:00:22.243Z,1019.95
2019-03-29T18:01:22.100Z,1019.92
2019-03-29T18:02:22.133Z,1019.96
2019-03-29T18:03:22.068Z,1019.93
2019-03-29T18:04:22.169Z,1020.01
2019-03-29T18:05:22.085Z,1020.02
2019-03-29T18:06:22.158Z,1020.05
2019-03-29T18:07:22.036Z,1020.07
2019-03-29T18:08:22.083Z,1020.03
2019-03-29T18:09:22.027Z,1020.02
2019-03-29T18:10:22.111Z,1020.05
2019-03-29T18:11:21.978Z,1020.06
2019-03-29T18:12:22.122Z,1020.06
2019-03-29T18:13:21.954Z,1020.06
2019-03-29T18:14:22.003Z,1020.05
2019-03-29T18:15:21.965Z,1020.02
2019-03-29T18:16:30.387Z,1020.05
2019-03-29T18:17:22.917Z,1020.00
2019-03-29T18:18:22.026Z,1020.05
2019-03-29T18:19:21.906Z,1020.07
2019-03-29T18:20:21.975Z,1020.08
2019-03-29T18:21:21.914Z,1020.01
2019-03-29T18:22:21.952Z,1020.08
2019-03-29T18:23:24.803Z,1020.05
2019-03-29T18:24:21.967Z,1020.03
2019-03-29T18:25:21.873Z,1020.00
2019-03-29T18:26:21.876Z,1020.02
2019-03-29T18:27:21.806Z,1020.04
2019-03-29T18:28:21.902Z,1020.02
2019-03-29T18:29:21.782Z,1020.05
2019-03-29T18:30:21.903Z,1020.04
2019-03-29T18:31:21.778Z,1020.11
2019-03-29T18:32:21.858Z,1020.09
2019-03-29T18:33:21.740Z,1020.14
2019-03-29T18:34:22.048Z,1020.17
2019-03-29T18:35:21.714Z,1020.14
2019-03-29T18:36:21.779Z,1020.15
2019-03-29T18:37:21.686Z,1020.19
2019-03-29T18:38:21.758Z,1020.20
2019-03-29T18:39:21.672Z,1020.16
2019-03-29T18:40:21.778Z,1020.13
2019-03-29T18:41:21.691Z,1020.15
2019-03-29T18:42:21.706Z,1020.14
2019-03-29T18:43:21.637Z,1020.10